Time;durP1;ratioP1;P1;durP2;ratioP2;P2;SDS_P1;SDS_P2;PMS_P1;PMS_P2;Temp;Humidity;BMP_temperature;BMP_pressure;BME280_temperature;BME280_humidity;BME280_pressure;Samples;Min_cycle;Max_cycle;Signal;HPM_P1;HPM_P2
2022/12/09 00:01:41;;;;;;;18.73;11.40;;;2.70;99.90;;;1.50;100.00;100230.25;4219102;28;20040;-75
2022/12/09 00:03:42;;;;;;;18.40;10.40;;;2.70;99.90;;;1.50;100.00;100223.28;4201987;28;20067;-75
2022/12/09 00:05:43;;;;;;;19.15;9.82;;;2.70;99.90;;;1.56;100.00;100222.84;4218157;28;20050;-75
2022/12/09 00:07:44;;;;;;;20.00;11.05;;;2.70;99.90;;;1.53;100.00;100219.63;4220088;28;20029;-75
2022/12/09 00:09:45;;;;;;;18.23;9.70;;;2.70;99.90;;;1.49;100.00;100216.41;4218926;28;20024;-75
2022/12/09 00:11:46;;;;;;;18.85;10.50;;;2.70;99.90;;;1.52;100.00;100217.97;4220123;28;20078;-76
2022/12/09 00:13:52;;;;;;;20.20;10.63;;;2.70;99.90;;;1.48;100.00;100219.97;4219559;28;20077;-75
2022/12/09 00:15:53;;;;;;;18.80;10.32;;;2.60;99.90;;;1.43;100.00;100213.44;4235249;28;20043;-75
2022/12/09 00:17:54;;;;;;;16.83;9.77;;;2.60;99.90;;;1.38;100.00;100212.94;4235805;28;20038;-75
2022/12/09 00:19:54;;;;;;;18.88;9.98;;;2.60;99.90;;;1.35;100.00;100215.75;4239971;27;20027;-75
2022/12/09 00:21:55;;;;;;;16.10;9.88;;;2.50;99.90;;;1.33;100.00;100210.69;4212171;28;20184;-75
2022/12/09 00:24:00;;;;;;;16.73;9.75;;;2.50;99.90;;;1.21;100.00;100205.53;4219924;28;20044;-75
2022/12/09 00:26:01;;;;;;;17.83;10.23;;;2.50;99.90;;;1.22;100.00;100207.19;4219796;28;20110;-75
2022/12/09 00:28:02;;;;;;;17.63;9.70;;;2.40;99.90;;;1.14;100.00;100194.75;4219754;28;20063;-75
2022/12/09 00:30:04;;;;;;;16.00;9.27;;;2.40;99.90;;;1.08;100.00;100195.19;4219827;28;20054;-75
2022/12/09 00:32:05;;;;;;;15.40;9.68;;;2.40;99.90;;;1.24;100.00;100198.34;4218473;28;20110;-75
2022/12/09 00:34:10;;;;;;;16.65;9.85;;;2.30;99.90;;;1.16;100.00;100187.69;4219694;28;20027;-75
2022/12/09 00:36:15;;;;;;;18.83;9.65;;;2.30;99.90;;;1.07;100.00;100194.38;4218146;28;20031;-75
2022/12/09 00:38:16;;;;;;;18.15;10.55;;;2.20;99.90;;;1.00;100.00;100190.53;4218341;28;20024;-75
2022/12/09 00:40:17;;;;;;;21.17;10.75;;;2.20;99.90;;;1.02;100.00;100191.25;4219885;28;20544;-75
2022/12/09 00:42:18;;;;;;;17.08;10.32;;;2.20;99.90;;;0.98;100.00;100187.22;4219669;28;20047;-75
2022/12/09 00:44:19;;;;;;;21.40;10.60;;;2.20;99.90;;;1.02;100.00;100196.44;4218405;28;20050;-75
2022/12/09 00:46:20;;;;;;;15.52;10.00;;;2.20;99.90;;;0.99;100.00;100194.06;4219499;28;20063;-75
2022/12/09 00:48:20;;;;;;;19.13;10.45;;;2.20;99.90;;;1.05;100.00;100192.78;4218446;28;20491;-75
2022/12/09 00:50:21;;;;;;;18.52;10.88;;;2.20;99.90;;;1.01;100.00;100188.78;4219396;28;20085;-75
2022/12/09 00:52:22;;;;;;;20.85;10.50;;;2.20;99.90;;;0.98;100.00;100178.59;4219485;28;20016;-75
2022/12/09 00:54:23;;;;;;;19.45;10.52;;;2.20;99.90;;;1.05;100.00;100179.81;4219321;28;20027;-75
2022/12/09 00:56:27;;;;;;;19.60;10.52;;;2.20;99.90;;;1.09;100.00;100174.31;4218061;28;20102;-75
2022/12/09 00:58:28;;;;;;;;;;;2.20;99.90;;;1.02;100.00;100182.63;4218684;28;20028;-75
2022/12/09 01:00:29;;;;;;;17.33;9.55;;;2.20;99.90;;;1.01;100.00;100178.38;4219452;28;20294;-75
2022/12/09 01:02:30;;;;;;;20.08;11.13;;;2.20;99.90;;;0.99;100.00;100181.09;4218019;28;20039;-75
2022/12/09 01:04:31;;;;;;;18.27;9.77;;;2.20;99.90;;;0.98;100.00;100184.63;4219276;28;20027;-75
2022/12/09 01:06:32;;;;;;;21.23;11.80;;;2.20;99.90;;;0.97;100.00;100184.72;4217849;28;20036;-76
2022/12/09 01:08:33;;;;;;;19.27;11.07;;;2.10;99.90;;;0.99;100.00;100193.22;4217922;28;20023;-75
2022/12/09 01:10:34;;;;;;;17.23;10.98;;;2.10;99.90;;;0.93;100.00;100178.09;4218904;28;20044;-75
2022/12/09 01:12:35;;;;;;;22.23;11.20;;;2.10;99.90;;;0.92;100.00;100169.50;4217936;28;20035;-75
2022/12/09 01:14:36;;;;;;;17.55;11.05;;;2.10;99.90;;;0.96;100.00;100170.91;4218866;28;20399;-76
2022/12/09 01:16:37;;;;;;;19.05;11.13;;;2.10;99.90;;;1.01;100.00;100173.19;4219180;28;20024;-75
2022/12/09 01:18:38;;;;;;;22.13;10.63;;;2.10;99.90;;;0.92;100.00;100173.84;4218971;28;20498;-75
2022/12/09 01:20:39;;;;;;;20.55;11.48;;;2.10;99.90;;;0.94;100.00;100164.19;4218957;28;20028;-75
2022/12/09 01:22:40;;;;;;;20.80;11.45;;;2.10;99.90;;;0.85;100.00;100167.41;4217898;28;20028;-75
2022/12/09 01:24:41;;;;;;;16.52;9.75;;;2.10;99.90;;;0.80;100.00;100161.75;4217792;28;20415;-75
2022/12/09 01:26:42;;;;;;;21.52;10.90;;;2.00;99.90;;;0.74;100.00;100163.00;4218854;28;20040;-75
2022/12/09 01:28:43;;;;;;;22.08;11.23;;;1.90;99.90;;;0.69;100.00;100165.06;4217816;28;20024;-75
2022/12/09 01:30:44;;;;;;;20.98;10.32;;;1.90;99.90;;;0.77;100.00;100167.97;4219116;28;20039;-75
2022/12/09 01:32:45;;;;;;;21.00;9.98;;;1.90;99.90;;;0.74;100.00;100157.81;4217724;28;20020;-75
2022/12/09 01:34:46;;;;;;;18.48;10.48;;;1.90;99.90;;;0.64;100.00;100159.38;4216950;28;20395;-75
2022/12/09 01:36:47;;;;;;;18.40;10.32;;;1.90;99.90;;;0.70;100.00;100160.72;4218886;28;20020;-75
2022/12/09 01:38:48;;;;;;;21.30;12.13;;;1.90;99.90;;;0.63;100.00;100164.69;4217764;28;20077;-75
2022/12/09 01:40:50;;;;;;;24.10;12.45;;;1.90;99.90;;;0.68;100.00;100166.03;4217704;28;20024;-75
2022/12/09 01:42:51;;;;;;;24.08;12.05;;;1.90;99.90;;;0.71;100.00;100170.16;4217596;28;20032;-75
2022/12/09 01:45:22;;;;;;;20.05;10.43;;;1.90;99.90;;;0.75;100.00;100169.00;4217707;28;20528;-75
2022/12/09 01:47:22;;;;;;;18.58;10.90;;;1.90;99.90;;;0.77;100.00;100167.16;4218885;28;20093;-75
2022/12/09 01:49:37;;;;;;;18.80;10.05;;;1.90;99.90;;;0.83;100.00;100171.91;4217527;28;20027;-75
2022/12/09 01:51:39;;;;;;;18.77;10.60;;;1.90;99.90;;;0.83;100.00;100174.50;4217337;28;20101;-75
2022/12/09 01:53:45;;;;;;;18.55;10.07;;;2.00;99.90;;;0.79;100.00;100165.25;4218609;28;20036;-75
2022/12/09 01:55:46;;;;;;;21.33;11.88;;;2.00;99.90;;;0.80;100.00;100172.13;4217309;28;20056;-75
2022/12/09 01:57:48;;;;;;;24.23;11.23;;;2.00;99.90;;;0.73;100.00;100163.09;4200611;28;20012;-75
2022/12/09 01:59:48;;;;;;;19.88;10.73;;;2.00;99.90;;;0.78;100.00;100172.22;4216983;28;20512;-75
2022/12/09 02:01:56;;;;;;;19.98;9.95;;;2.00;99.90;;;0.79;100.00;100173.03;4217574;28;20024;-75
2022/12/09 02:03:57;;;;;;;20.85;11.77;;;2.00;99.90;;;0.75;100.00;100156.84;4217217;28;20103;-75
2022/12/09 02:05:58;;;;;;;17.80;10.10;;;2.00;99.90;;;0.74;100.00;100160.41;4216755;28;20016;-75
2022/12/09 02:07:59;;;;;;;17.40;10.75;;;2.00;99.90;;;0.80;100.00;100170.34;4224921;28;20032;-75
2022/12/09 02:10:04;;;;;;;18.70;10.45;;;2.00;99.90;;;0.76;100.00;100163.72;4246246;28;20489;-75
2022/12/09 02:12:46;;;;;;;19.35;11.00;;;2.00;99.90;;;0.79;100.00;100158.31;4217061;28;20033;-75
2022/12/09 02:14:57;;;;;;;20.85;11.02;;;1.90;99.90;;;0.76;100.00;100165.47;4185807;28;20024;-75
2022/12/09 02:17:23;;;;;;;18.13;9.93;;;1.90;99.90;;;0.76;100.00;100175.84;4217113;28;20073;-75
2022/12/09 02:20:00;;;;;;;20.42;12.23;;;1.90;99.90;;;0.70;100.00;100168.50;4218459;28;20055;-75
2022/12/09 02:22:01;;;;;;;18.60;10.50;;;1.90;99.90;;;0.70;100.00;100169.34;4218445;28;20074;-75
2022/12/09 02:24:33;;;;;;;17.73;9.77;;;1.90;99.90;;;0.70;100.00;100166.75;4218530;28;20027;-75
2022/12/09 02:26:52;;;;;;;19.98;11.30;;;1.90;99.90;;;0.74;100.00;100162.16;4217234;28;20024;-75
2022/12/09 02:29:42;;;;;;;22.48;11.55;;;1.90;99.90;;;0.71;100.00;100163.22;4201440;28;20126;-75
2022/12/09 02:32:40;;;;;;;20.63;11.48;;;1.90;99.90;;;0.66;100.00;100169.66;4194813;28;20061;-75
2022/12/09 02:34:55;;;;;;;25.40;12.40;;;1.90;99.90;;;0.66;100.00;100164.47;4216670;28;20061;-75
2022/12/09 02:37:05;;;;;;;;;;;1.90;99.90;;;0.59;100.00;100160.66;4217617;28;20054;-75
2022/12/09 02:39:08;;;;;;;23.63;11.80;;;1.90;99.90;;;0.57;100.00;100148.59;4218416;28;19908;-75
2022/12/09 02:41:26;;;;;;;23.27;12.40;;;1.80;99.90;;;0.54;100.00;100159.19;4200307;28;20040;-75
2022/12/09 02:43:36;;;;;;;22.42;12.52;;;1.80;99.90;;;0.53;100.00;100147.16;4218402;28;20034;-75
2022/12/09 02:45:39;;;;;;;25.17;12.25;;;1.80;99.90;;;0.56;100.00;100161.69;4216997;28;20028;-75
2022/12/09 02:47:48;;;;;;;21.23;12.02;;;1.70;99.90;;;0.61;100.00;100162.19;4218349;28;20040;-75
2022/12/09 02:49:58;;;;;;;22.40;12.88;;;1.70;99.90;;;0.54;100.00;100155.75;4220347;28;20035;-75
2022/12/09 02:52:02;;;;;;;23.98;13.27;;;1.80;99.90;;;0.51;100.00;100155.97;4220333;28;20027;-75
2022/12/09 02:54:10;;;;;;;23.75;13.02;;;1.70;99.90;;;0.49;100.00;100157.84;4220266;28;20043;-75
2022/12/09 02:56:13;;;;;;;25.48;13.13;;;1.70;99.90;;;0.46;100.00;100150.28;4220416;28;20028;-75
2022/12/09 02:58:14;;;;;;;23.23;12.88;;;1.70;99.90;;;0.48;100.00;100156.19;4220381;28;20097;-75
2022/12/09 03:00:15;;;;;;;25.30;12.60;;;1.70;99.90;;;0.46;100.00;100142.50;4220143;28;20032;-75
2022/12/09 03:02:28;;;;;;;24.25;13.65;;;1.70;99.90;;;0.48;100.00;100140.63;4221533;28;20144;-75
2022/12/09 03:04:30;;;;;;;27.40;13.50;;;1.70;99.90;;;0.38;100.00;100137.03;4220223;28;20024;-75
2022/12/09 03:06:40;;;;;;;24.95;13.57;;;1.70;99.90;;;0.42;100.00;100135.84;4220917;28;20056;-75
2022/12/09 03:08:51;;;;;;;20.42;12.40;;;1.60;99.90;;;0.38;100.00;100137.03;4220344;28;20502;-75
2022/12/09 03:11:07;;;;;;;23.45;13.18;;;1.60;99.90;;;0.34;100.00;100136.41;4208430;28;20031;-75
2022/12/09 03:13:43;;;;;;;24.10;13.02;;;1.50;99.90;;;0.27;100.00;100136.94;4221457;28;20084;-75
2022/12/09 03:15:52;;;;;;;24.10;13.05;;;1.50;99.90;;;0.22;100.00;100128.63;4220804;28;20068;-75
2022/12/09 03:17:56;;;;;;;24.98;12.65;;;1.40;99.90;;;0.20;100.00;100130.50;4203463;28;20049;-75
2022/12/09 03:20:14;;;;;;;29.13;13.40;;;1.40;99.90;;;0.15;100.00;100133.41;4219440;28;20032;-75
2022/12/09 03:22:21;;;;;;;22.75;12.55;;;1.40;99.90;;;0.15;100.00;100133.41;4219829;28;20028;-75
2022/12/09 03:24:32;;;;;;;26.55;13.48;;;1.30;99.90;;;0.17;100.00;100135.91;4203107;28;20115;-75
2022/12/09 03:26:36;;;;;;;22.83;12.95;;;1.30;99.90;;;0.11;100.00;100137.16;4219601;28;20032;-75
2022/12/09 03:28:43;;;;;;;26.35;15.18;;;1.30;99.90;;;0.07;100.00;100137.44;4219942;28;20028;-75
2022/12/09 03:30:45;;;;;;;22.73;11.95;;;1.30;99.90;;;0.05;100.00;100145.34;4219702;28;20028;-75
2022/12/09 03:32:46;;;;;;;23.15;13.00;;;1.30;99.90;;;-0.01;100.00;100138.00;4219775;28;20134;-75
2022/12/09 03:34:52;;;;;;;29.75;14.10;;;1.20;99.90;;;-0.08;100.00;100140.16;4202605;28;20040;-75
2022/12/09 03:36:53;;;;;;;25.15;13.35;;;1.20;99.90;;;-0.11;100.00;100144.72;4219871;28;20028;-75
2022/12/09 03:38:55;;;;;;;28.05;13.55;;;1.10;99.90;;;-0.21;100.00;100131.53;4219497;28;20024;-75
2022/12/09 03:41:31;;;;;;;28.80;14.43;;;1.10;99.90;;;-0.20;100.00;100133.22;4202627;28;20058;-75
2022/12/09 03:43:39;;;;;;;;;;;1.10;99.90;;;-0.16;100.00;100139.84;4157065;28;20415;-75
2022/12/09 03:45:41;;;;;;;24.20;13.60;;;1.10;99.90;;;-0.15;100.00;100143.28;4220575;28;19911;-75
2022/12/09 03:47:42;;;;;;;24.48;13.05;;;1.10;99.90;;;-0.07;100.00;100152.19;4219256;28;20449;-75
2022/12/09 03:49:43;;;;;;;29.35;14.52;;;1.20;99.90;;;0.00;100.00;100145.66;4219208;28;20020;-75
2022/12/09 03:52:00;;;;;;;27.00;14.00;;;1.20;99.90;;;0.10;100.00;100145.03;4219447;28;20511;-75
2022/12/09 03:54:29;;;;;;;26.75;13.85;;;1.30;99.90;;;0.21;100.00;100145.16;4219625;28;20020;-75
2022/12/09 03:56:41;;;;;;;26.85;14.65;;;1.30;99.90;;;0.23;100.00;100138.91;4219594;28;20039;-75
2022/12/09 03:58:45;;;;;;;30.38;13.18;;;1.40;99.90;;;0.23;100.00;100144.09;4218908;28;20436;-75
2022/12/09 04:00:48;;;;;;;23.92;12.13;;;1.50;99.90;;;0.25;100.00;100141.38;4219081;28;20078;-75
2022/12/09 04:02:49;;;;;;;24.05;12.45;;;1.50;99.90;;;0.34;100.00;100135.56;4219301;28;20053;-75
2022/12/09 04:04:51;;;;;;;24.05;13.60;;;1.50;99.90;;;0.25;100.00;100139.63;4220255;28;20046;-75
2022/12/09 04:06:53;;;;;;;28.75;13.50;;;1.50;99.90;;;0.28;100.00;100138.56;4220412;28;20028;-75
2022/12/09 04:08:54;;;;;;;24.60;12.43;;;1.50;99.90;;;0.30;100.00;100144.50;4218929;28;20373;-75
2022/12/09 04:10:55;;;;;;;24.80;12.98;;;1.50;99.90;;;0.33;100.00;100136.53;4219209;28;20052;-75
2022/12/09 04:12:56;;;;;;;27.15;13.57;;;1.50;99.90;;;0.33;100.00;100133.94;4218988;28;20050;-75
2022/12/09 04:14:57;;;;;;;22.17;12.18;;;1.50;99.90;;;0.34;100.00;100135.56;4219970;28;20131;-75
2022/12/09 04:16:58;;;;;;;23.63;12.43;;;1.60;99.90;;;0.40;100.00;100142.91;4219953;28;20518;-75
2022/12/09 04:18:59;;;;;;;25.42;12.10;;;1.50;99.90;;;0.43;100.00;100135.75;4220154;28;20028;-75
2022/12/09 04:21:03;;;;;;;21.40;11.55;;;1.60;99.90;;;0.41;100.00;100139.41;4218655;28;20040;-75
2022/12/09 04:23:04;;;;;;;26.02;12.68;;;1.60;99.90;;;0.48;100.00;100151.00;4218840;28;20477;-75
2022/12/09 04:25:06;;;;;;;25.45;12.98;;;1.60;99.90;;;0.47;100.00;100145.00;4219681;28;20024;-75
2022/12/09 04:27:09;;;;;;;22.67;12.30;;;1.70;99.90;;;0.50;100.00;100141.34;4218669;28;20519;-75
2022/12/09 04:29:11;;;;;;;21.58;12.07;;;1.70;99.90;;;0.45;100.00;100140.81;4218708;28;20024;-75
2022/12/09 04:31:14;;;;;;;22.50;12.45;;;1.70;99.90;;;0.48;100.00;100138.03;4218556;28;20016;-75
2022/12/09 04:33:15;;;;;;;19.98;11.73;;;1.70;99.90;;;0.49;100.00;100131.91;4201651;28;20408;-75
2022/12/09 04:35:16;;;;;;;23.17;11.90;;;1.70;99.90;;;0.50;100.00;100149.16;4219607;28;20035;-75
2022/12/09 04:37:17;;;;;;;20.45;11.70;;;1.70;99.90;;;0.45;100.00;100141.66;4218484;28;20441;-75
2022/12/09 04:39:18;;;;;;;20.27;10.98;;;1.70;99.90;;;0.53;100.00;100154.13;4218686;28;20453;-75
2022/12/09 04:41:19;;;;;;;21.17;11.05;;;1.70;99.90;;;0.52;100.00;100142.91;4219535;28;20036;-75
2022/12/09 04:43:20;;;;;;;21.85;11.60;;;1.70;99.90;;;0.59;100.00;100143.31;4219746;28;20368;-75
2022/12/09 04:45:21;;;;;;;21.83;11.63;;;1.80;99.90;;;0.53;100.00;100135.97;4219774;28;20035;-75
2022/12/09 04:47:22;;;;;;;20.70;10.65;;;1.80;99.90;;;0.55;100.00;100145.28;4218389;28;20024;-74
2022/12/09 04:49:22;;;;;;;20.70;10.82;;;1.70;99.90;;;0.56;100.00;100143.53;4219553;28;20490;-75
2022/12/09 04:51:23;;;;;;;20.35;11.40;;;1.80;99.90;;;0.48;100.00;100141.44;4218214;28;20021;-75
2022/12/09 04:53:26;;;;;;;17.92;11.35;;;1.80;99.90;;;0.52;100.00;100147.25;4219564;28;20028;-75
2022/12/09 04:55:27;;;;;;;21.23;12.77;;;1.80;99.90;;;0.62;100.00;100142.25;4218267;28;20024;-75
2022/12/09 04:57:28;;;;;;;22.58;11.10;;;1.80;99.90;;;0.61;100.00;100149.22;4217983;28;20039;-75
2022/12/09 04:59:30;;;;;;;20.75;11.27;;;1.80;99.90;;;0.54;100.00;100135.00;4219611;28;20050;-75
2022/12/09 05:01:32;;;;;;;23.00;11.77;;;1.70;99.90;;;0.52;100.00;100145.50;4219173;28;20031;-75
2022/12/09 05:03:33;;;;;;;19.70;11.30;;;1.80;99.90;;;0.49;100.00;100137.09;4219333;28;20051;-75
2022/12/09 05:05:37;;;;;;;21.38;10.90;;;1.80;99.90;;;0.56;100.00;100140.94;4218894;28;20032;-75
2022/12/09 05:07:38;;;;;;;19.38;11.13;;;1.80;99.90;;;0.60;100.00;100142.34;4218196;28;20047;-75
2022/12/09 05:09:39;;;;;;;23.33;11.35;;;1.80;99.90;;;0.59;100.00;100143.31;4218580;28;20032;-75
2022/12/09 05:11:40;;;;;;;17.63;10.43;;;1.80;99.90;;;0.67;100.00;100146.19;4217956;28;20020;-75
2022/12/09 05:13:41;;;;;;;18.60;10.93;;;1.80;99.90;;;0.62;100.00;100140.50;4219016;28;20039;-75
2022/12/09 05:15:42;;;;;;;22.17;10.93;;;1.80;99.90;;;0.64;100.00;100141.22;4218844;28;20040;-75
2022/12/09 05:17:43;;;;;;;19.23;10.40;;;1.80;99.90;;;0.69;100.00;100143.50;4219143;28;20110;-75
2022/12/09 05:19:44;;;;;;;20.75;10.60;;;1.90;99.90;;;0.70;100.00;100143.38;4218821;28;20031;-75
2022/12/09 05:21:45;;;;;;;18.30;10.60;;;1.90;99.90;;;0.64;100.00;100136.03;4218939;28;20063;-74
2022/12/09 05:23:47;;;;;;;18.25;10.23;;;1.90;99.90;;;0.64;100.00;100136.03;4218189;28;20028;-75
2022/12/09 05:25:48;;;;;;;19.88;10.63;;;1.90;99.90;;;0.71;100.00;100147.66;4217773;28;20024;-75
2022/12/09 05:27:49;;;;;;;19.77;10.48;;;1.90;99.90;;;0.74;100.00;100144.00;4217793;28;20052;-75
2022/12/09 05:29:50;;;;;;;21.00;11.45;;;1.90;99.90;;;0.73;100.00;100140.56;4218747;28;20028;-74
2022/12/09 05:31:51;;;;;;;17.63;10.05;;;1.90;99.90;;;0.71;100.00;100145.03;4217918;28;20392;-75
2022/12/09 05:33:52;;;;;;;18.17;10.25;;;2.00;99.90;;;0.68;100.00;100137.47;4217629;28;20047;-75
2022/12/09 05:35:53;;;;;;;18.23;10.52;;;2.00;99.90;;;0.75;100.00;100137.84;4217369;28;20024;-75
2022/12/09 05:37:54;;;;;;;17.02;9.93;;;2.00;99.90;;;0.72;100.00;100141.50;4218691;28;20032;-75
2022/12/09 05:39:55;;;;;;;18.15;10.57;;;2.00;99.90;;;0.75;100.00;100145.63;4201035;28;20519;-75
2022/12/09 05:41:56;;;;;;;18.35;9.65;;;2.00;99.90;;;0.72;100.00;100136.31;4218786;28;20031;-75
2022/12/09 05:43:57;;;;;;;17.13;10.18;;;2.00;99.90;;;0.72;100.00;100128.50;4217566;28;20600;-75
2022/12/09 05:45:59;;;;;;;16.75;9.43;;;2.00;99.90;;;0.79;100.00;100128.91;4200541;28;20029;-75
2022/12/09 05:48:00;;;;;;;18.75;9.63;;;2.00;99.90;;;0.83;100.00;100141.59;4217812;28;20031;-75
2022/12/09 05:50:01;;;;;;;18.55;10.52;;;2.00;99.90;;;0.84;100.00;100143.22;4218543;28;20479;-75
2022/12/09 05:52:02;;;;;;;17.42;10.07;;;2.10;99.90;;;0.82;100.00;100137.31;4218854;28;20028;-75
2022/12/09 05:54:05;;;;;;;17.00;10.68;;;2.10;99.90;;;0.88;100.00;100144.69;4217326;28;20024;-75
2022/12/09 05:56:06;;;;;;;20.63;10.68;;;2.10;99.90;;;0.89;100.00;100142.91;4217483;28;20050;-75
2022/12/09 05:58:06;;;;;;;16.80;9.90;;;2.10;99.90;;;0.99;100.00;100151.69;4218664;28;20032;-75
2022/12/09 06:00:08;;;;;;;18.60;10.63;;;2.10;99.90;;;1.01;100.00;100155.84;4217531;28;20024;-75
2022/12/09 06:02:09;;;;;;;17.23;10.02;;;2.20;99.90;;;1.06;100.00;100152.91;4218452;28;20506;-75
2022/12/09 06:04:10;;;;;;;17.15;10.93;;;2.20;99.90;;;1.07;100.00;100158.00;4218693;28;20032;-75
2022/12/09 06:06:16;;;;;;;17.33;9.95;;;2.20;99.90;;;1.09;100.00;100160.47;4218316;28;20475;-75
2022/12/09 06:08:17;;;;;;;18.15;9.98;;;2.30;99.90;;;1.06;100.00;100152.91;4217346;28;20051;-75
2022/12/09 06:10:18;;;;;;;17.20;10.05;;;2.30;99.90;;;1.08;100.00;100167.44;4216951;28;20020;-75
2022/12/09 06:12:19;;;;;;;20.98;10.93;;;2.30;99.90;;;1.07;100.00;100163.22;4217317;28;20035;-75
2022/12/09 06:14:20;;;;;;;17.42;10.48;;;2.30;99.90;;;0.99;100.00;100160.31;4216855;28;20020;-75
2022/12/09 06:16:22;;;;;;;16.02;9.63;;;2.20;99.90;;;1.01;100.00;100166.25;4217377;28;20040;-75
2022/12/09 06:18:22;;;;;;;17.25;9.90;;;2.20;99.90;;;0.88;100.00;100165.44;4217013;28;20032;-75
2022/12/09 06:20:23;;;;;;;18.27;10.38;;;2.20;99.90;;;1.01;100.00;100174.03;4217083;28;20051;-75
2022/12/09 06:22:24;;;;;;;16.88;9.98;;;2.20;99.90;;;1.00;100.00;100169.78;4220114;28;20118;-75
2022/12/09 06:24:25;;;;;;;14.13;9.00;;;2.20;99.90;;;1.01;100.00;100181.00;4222011;28;20083;-75
2022/12/09 06:26:28;;;;;;;18.30;9.98;;;2.20;99.90;;;0.96;100.00;100178.69;4221647;28;20024;-75
2022/12/09 06:28:30;;;;;;;17.02;9.75;;;2.20;99.90;;;0.99;100.00;100168.09;4220724;28;20115;-76
2022/12/09 06:30:31;;;;;;;16.05;9.68;;;2.20;99.90;;;1.03;100.00;100172.16;4220584;28;20226;-75
2022/12/09 06:32:32;;;;;;;15.48;9.07;;;2.20;99.90;;;1.02;100.00;100186.06;4220569;28;20066;-75
2022/12/09 06:34:33;;;;;;;16.98;10.35;;;2.20;99.90;;;0.99;100.00;100182.84;4221476;28;20016;-75
2022/12/09 06:36:34;;;;;;;17.92;9.85;;;2.20;99.90;;;1.06;100.00;100190.09;4221516;28;20036;-75
2022/12/09 06:38:35;;;;;;;15.00;9.18;;;2.20;99.90;;;0.98;100.00;100187.22;4221842;28;20028;-75
2022/12/09 06:40:43;;;;;;;17.88;10.43;;;2.20;99.90;;;0.99;100.00;100194.06;4220406;28;20070;-75
2022/12/09 06:42:44;;;;;;;18.35;9.90;;;2.20;99.90;;;0.99;100.00;100182.84;4220297;28;20028;-75
2022/12/09 06:44:45;;;;;;;15.85;9.13;;;2.20;99.90;;;1.03;100.00;100198.13;4221570;28;20401;-75
2022/12/09 06:46:46;;;;;;;20.20;11.63;;;2.20;99.90;;;0.99;100.00;100182.84;4221791;28;20035;-75
2022/12/09 06:48:47;;;;;;;14.75;8.60;;;2.20;99.90;;;1.05;100.00;100200.59;4221433;28;20387;-75
2022/12/09 06:50:50;;;;;;;19.80;10.27;;;2.20;99.90;;;0.99;100.00;100185.44;4219885;28;20024;-75
2022/12/09 06:52:51;;;;;;;18.42;9.73;;;2.20;99.90;;;0.96;100.00;100196.88;4220303;28;20039;-75
2022/12/09 06:54:52;;;;;;;18.13;9.63;;;2.20;99.90;;;0.92;100.00;100195.47;4221484;28;20387;-75
2022/12/09 06:56:52;;;;;;;18.27;9.88;;;2.20;99.90;;;0.98;100.00;100191.59;4221475;28;20020;-75
2022/12/09 06:58:53;;;;;;;15.82;9.98;;;2.20;99.90;;;0.94;100.00;100198.75;4221264;28;20515;-75
2022/12/09 07:00:54;;;;;;;15.63;9.55;;;2.20;99.90;;;0.96;100.00;100202.06;4221129;28;20059;-75
2022/12/09 07:02:55;;;;;;;16.30;9.43;;;2.20;99.90;;;0.95;100.00;100197.00;4221201;28;20020;-75
2022/12/09 07:04:56;;;;;;;16.60;9.45;;;2.10;99.90;;;1.01;100.00;100196.56;4219822;28;20020;-75
2022/12/09 07:06:57;;;;;;;15.10;9.02;;;2.20;99.90;;;1.07;100.00;100201.34;4219865;28;20032;-75
2022/12/09 07:09:23;;;;;;;16.92;8.88;;;2.20;99.90;;;1.04;100.00;100202.38;4221037;28;20066;-75
2022/12/09 07:11:24;;;;;;;16.98;9.32;;;2.20;99.90;;;1.07;100.00;100194.38;4220919;28;20036;-75
2022/12/09 07:13:25;;;;;;;15.82;8.63;;;2.20;99.90;;;0.99;100.00;100201.84;4221120;28;20045;-75
2022/12/09 07:15:26;;;;;;;16.90;9.38;;;2.20;99.90;;;1.02;100.00;100199.03;4219579;28;20177;-75
2022/12/09 07:17:27;;;;;;;15.65;9.48;;;2.20;99.90;;;1.11;100.00;100213.13;4221178;28;20043;-75
2022/12/09 07:19:29;;;;;;;15.18;9.35;;;2.20;99.90;;;1.06;100.00;100203.09;4220857;28;20020;-75
2022/12/09 07:21:31;;;;;;;17.38;10.25;;;2.20;99.90;;;1.05;100.00;100201.41;4220874;28;20036;-75
2022/12/09 07:23:32;;;;;;;17.92;10.15;;;2.30;99.90;;;0.99;100.00;100199.25;4219797;28;20048;-75
2022/12/09 07:25:32;;;;;;;16.80;9.68;;;2.20;99.90;;;0.98;100.00;100200.22;4219798;28;20028;-75
2022/12/09 07:27:33;;;;;;;19.83;10.45;;;2.20;99.90;;;0.99;100.00;100191.47;4219593;28;20028;-75
2022/12/09 07:29:35;;;;;;;16.63;9.18;;;2.20;99.90;;;0.93;100.00;100193.66;4220776;28;20081;-75
2022/12/09 07:31:36;;;;;;;17.27;10.30;;;2.20;99.90;;;0.99;100.00;100207.06;4219685;28;20024;-75
2022/12/09 07:33:37;;;;;;;17.92;9.90;;;2.20;99.90;;;0.94;100.00;100203.13;4220209;28;20039;-75
2022/12/09 07:35:38;;;;;;;18.08;10.40;;;2.20;99.90;;;0.92;100.00;100192.84;4219496;28;20039;-75
2022/12/09 07:37:39;;;;;;;17.75;10.70;;;2.20;99.90;;;0.99;100.00;100209.66;4220684;28;20482;-75
2022/12/09 07:39:40;;;;;;;20.05;9.82;;;2.20;99.90;;;0.91;100.00;100195.56;4220721;28;20028;-75
2022/12/09 07:41:41;;;;;;;15.23;8.68;;;2.20;99.90;;;0.92;100.00;100199.81;4219417;28;20066;-75
2022/12/09 07:43:44;;;;;;;15.75;9.75;;;2.10;99.90;;;1.00;100.00;100202.69;4220761;28;20030;-75
2022/12/09 07:45:45;;;;;;;18.13;10.35;;;2.10;99.90;;;1.02;100.00;100204.25;4219229;28;20028;-75
2022/12/09 07:47:46;;;;;;;16.80;9.10;;;2.20;99.90;;;1.02;100.00;100204.25;4220426;28;20054;-75
2022/12/09 07:49:47;;;;;;;15.80;9.38;;;2.20;99.90;;;1.04;100.00;100201.53;4219150;28;20028;-75
2022/12/09 07:51:48;;;;;;;17.33;10.95;;;2.20;99.90;;;1.08;100.00;100196.00;4220720;28;20028;-75
2022/12/09 07:53:50;;;;;;;17.58;10.60;;;2.20;99.90;;;1.07;100.00;100207.34;4220464;28;20032;-75
2022/12/09 07:55:51;;;;;;;18.40;10.05;;;2.20;99.90;;;1.07;100.00;100196.13;4219093;28;20066;-75
2022/12/09 07:57:52;;;;;;;17.10;10.02;;;2.30;99.90;;;1.11;100.00;100197.56;4220684;28;20031;-75
2022/12/09 07:59:53;;;;;;;19.30;10.65;;;2.30;99.90;;;1.11;100.00;100210.53;4219295;28;20052;-75
2022/12/09 08:01:54;;;;;;;17.15;9.50;;;2.30;99.90;;;1.10;100.00;100214.94;4202288;28;20119;-75
2022/12/09 08:03:56;;;;;;;16.02;10.15;;;2.30;99.90;;;1.15;100.00;100213.75;4218995;28;20024;-75
2022/12/09 08:05:57;;;;;;;18.13;9.98;;;2.30;99.90;;;1.22;100.00;100212.38;4218908;28;20032;-75
2022/12/09 08:07:57;;;;;;;16.35;10.05;;;2.40;99.90;;;1.23;100.00;100214.03;4219092;28;20050;-75
2022/12/09 08:09:58;;;;;;;16.65;10.48;;;2.40;99.90;;;1.23;100.00;100211.44;4220203;28;20024;-75
2022/12/09 08:11:59;;;;;;;18.27;9.25;;;2.40;99.90;;;1.24;100.00;100205.31;4220444;28;20020;-75
2022/12/09 08:14:05;;;;;;;20.17;11.30;;;2.40;99.90;;;1.25;100.00;100220.81;4220131;28;20054;-75
2022/12/09 08:16:09;;;;;;;18.02;10.82;;;2.40;99.90;;;1.27;100.00;100223.28;4219869;28;20044;-75
2022/12/09 08:18:10;;;;;;;18.50;10.98;;;2.40;99.90;;;1.28;100.00;100220.59;4218938;28;20081;-75
2022/12/09 08:20:12;;;;;;;17.77;10.23;;;2.40;99.90;;;1.30;100.00;100230.84;4219786;28;20032;-75
2022/12/09 08:22:12;;;;;;;16.77;11.25;;;2.50;99.90;;;1.30;100.00;100231.69;4220384;28;20028;-75
2022/12/09 08:24:13;;;;;;;20.23;11.15;;;2.50;99.90;;;1.41;100.00;100241.28;4201924;28;20519;-75
2022/12/09 08:26:18;;;;;;;18.35;10.85;;;2.60;99.90;;;1.48;100.00;100235.56;4219929;28;20020;-75
2022/12/09 08:28:20;;;;;;;18.00;11.00;;;2.60;99.90;;;1.49;100.00;100229.41;4218000;28;20103;-75
2022/12/09 08:30:21;;;;;;;19.55;10.63;;;2.60;99.90;;;1.48;100.00;100237.31;4218924;28;20105;-75
2022/12/09 08:32:22;;;;;;;19.70;11.40;;;2.70;99.90;;;1.53;100.00;100232.63;4220079;28;20024;-75